createdAt,value
2018-07-11T04:12:04.159Z,99.90
2018-07-11T04:14:33.723Z,99.90
2018-07-11T04:17:03.172Z,99.90
2018-07-11T04:19:32.301Z,99.90
2018-07-11T04:22:01.399Z,99.90
2018-07-11T04:24:52.982Z,99.90
2018-07-11T04:27:22.453Z,99.90
2018-07-11T04:32:20.071Z,99.90
2018-07-11T04:34:49.265Z,99.90
2018-07-11T04:37:18.697Z,99.90
2018-07-11T04:39:48.008Z,99.90
2018-07-11T04:42:16.793Z,99.90
2018-07-11T04:44:45.925Z,99.90
2018-07-11T04:47:14.881Z,99.90
2018-07-11T04:49:44.388Z,99.90
2018-07-11T04:52:13.588Z,99.90
2018-07-11T04:54:42.269Z,99.90
2018-07-11T04:57:11.217Z,99.90
2018-07-11T04:59:40.133Z,99.90
2018-07-11T05:02:08.883Z,99.90
2018-07-11T05:04:37.563Z,99.90
2018-07-11T05:07:06.411Z,99.90
2018-07-11T05:09:35.636Z,99.90
2018-07-11T05:12:04.523Z,99.90
2018-07-11T05:14:33.417Z,99.90
2018-07-11T05:17:02.296Z,99.90
2018-07-11T05:19:31.132Z,99.90
2018-07-11T05:22:00.421Z,99.90
2018-07-11T05:24:29.188Z,99.90
2018-07-11T05:26:58.265Z,99.90
2018-07-11T05:29:27.045Z,99.90
2018-07-11T05:31:56.160Z,99.90
2018-07-11T05:34:25.169Z,99.90
2018-07-11T05:36:54.068Z,99.90
2018-07-11T05:39:24.131Z,99.90
2018-07-11T05:41:54.207Z,99.90
2018-07-11T05:44:22.839Z,99.90
2018-07-11T05:46:58.565Z,99.90
2018-07-11T05:49:27.527Z,99.90
2018-07-11T05:51:57.366Z,99.90
2018-07-11T05:54:26.213Z,99.90
2018-07-11T05:56:54.909Z,99.90
2018-07-11T05:59:24.823Z,99.90
2018-07-11T06:01:53.568Z,99.90
2018-07-11T06:04:22.381Z,99.90
2018-07-11T06:06:51.482Z,99.90
2018-07-11T06:09:20.249Z,99.90
2018-07-11T06:11:49.889Z,99.90
2018-07-11T06:14:18.552Z,99.90
2018-07-11T06:16:47.861Z,99.90
2018-07-11T06:19:16.637Z,99.90
2018-07-11T06:21:48.256Z,99.90
2018-07-11T06:24:17.254Z,99.90
2018-07-11T06:26:45.910Z,99.90
2018-07-11T06:29:14.721Z,99.90
2018-07-11T06:31:43.543Z,99.90
2018-07-11T06:34:12.413Z,99.90
2018-07-11T06:36:41.621Z,99.90
2018-07-11T06:39:10.555Z,99.90
2018-07-11T06:41:39.578Z,99.90
2018-07-11T06:51:35.081Z,99.90
2018-07-11T06:54:03.854Z,98.80
2018-07-11T06:56:32.488Z,98.40
2018-07-11T06:59:01.165Z,99.00
2018-07-11T07:01:30.101Z,98.00
2018-07-11T07:03:58.935Z,96.70
2018-07-11T07:06:28.183Z,95.60
2018-07-11T07:08:57.637Z,96.60
2018-07-11T07:11:26.931Z,95.40
